Time;durP1;ratioP1;P1;durP2;ratioP2;P2;SDS_P1;SDS_P2;PMS_P1;PMS_P2;Temp;Humidity;BMP_temperature;BMP_pressure;BME280_temperature;BME280_humidity;BME280_pressure;Samples;Min_cycle;Max_cycle;Signal;HPM_P1;HPM_P2
2024/01/31 00:00:57;;;;;;;21.77;17.87;;;;;;;6.51;100.00;101766.53;5031493;28;20255;-64
2024/01/31 00:03:22;;;;;;;22.00;18.60;;;;;;;6.41;100.00;101765.78;5042979;28;20191;-66
2024/01/31 00:05:48;;;;;;;23.20;17.90;;;;;;;6.49;100.00;101765.69;5023817;28;20174;-66
2024/01/31 00:08:14;;;;;;;23.13;18.37;;;;;;;6.65;100.00;101768.06;5032197;28;20173;-65
2024/01/31 00:10:39;;;;;;;26.37;18.10;;;;;;;6.85;100.00;101776.34;5031570;28;20303;-66
2024/01/31 00:13:04;;;;;;;24.50;17.93;;;;;;;6.85;100.00;101770.41;5056712;28;20189;-65
2024/01/31 00:15:29;;;;;;;21.57;17.97;;;;;;;6.85;100.00;101771.25;5032303;28;20178;-65
2024/01/31 00:17:56;;;;;;;22.40;17.97;;;;;;;6.96;100.00;101766.00;5032212;28;20181;-66
2024/01/31 00:20:21;;;;;;;21.50;17.83;;;;;;;6.83;100.00;101769.56;5025314;28;20243;-66
2024/01/31 00:22:46;;;;;;;23.80;18.07;;;;;;;6.79;100.00;101768.75;5043854;28;20181;-66
2024/01/31 00:25:12;;;;;;;24.67;18.33;;;;;;;6.85;100.00;101778.09;5030370;28;20264;-66
2024/01/31 00:27:37;;;;;;;24.43;18.20;;;;;;;6.91;100.00;101773.72;5029309;28;20228;-66
2024/01/31 00:30:03;;;;;;;22.50;19.13;;;;;;;6.86;100.00;101775.50;5030801;28;20221;-65
2024/01/31 00:32:29;;;;;;;20.33;17.37;;;;;;;6.85;100.00;101780.63;5040313;28;20218;-65
2024/01/31 00:34:54;;;;;;;22.40;17.57;;;;;;;6.94;100.00;101777.94;5030460;28;20190;-65
2024/01/31 00:37:19;;;;;;;27.50;18.67;;;;;;;6.69;100.00;101774.84;5018475;28;20614;-65
2024/01/31 00:39:48;;;;;;;22.27;16.57;;;;;;;6.65;100.00;101779.16;5030339;28;20204;-65
2024/01/31 00:42:13;;;;;;;20.23;16.80;;;;;;;6.82;100.00;101780.66;5038101;28;20216;-64
2024/01/31 00:44:38;;;;;;;24.90;17.13;;;;;;;6.78;100.00;101779.84;5021914;28;20475;-65
2024/01/31 00:47:04;;;;;;;26.80;18.27;;;;;;;6.60;100.00;101773.25;5025820;28;20311;-65
2024/01/31 00:49:29;;;;;;;23.20;17.83;;;;;;;6.59;100.00;101772.38;5038835;28;20558;-64
2024/01/31 00:51:54;;;;;;;24.23;18.20;;;;;;;6.48;100.00;101771.66;5038508;28;20221;-65
2024/01/31 00:54:20;;;;;;;21.17;16.90;;;;;;;6.56;100.00;101771.56;5022448;28;20575;-64
2024/01/31 00:56:45;;;;;;;25.77;16.70;;;;;;;6.55;100.00;101768.19;5031365;28;20186;-65
2024/01/31 00:59:11;;;;;;;22.77;17.30;;;;;;;6.45;100.00;101774.25;5031592;28;20178;-66
2024/01/31 01:01:36;;;;;;;22.60;17.93;;;;;;;6.41;100.00;101768.34;5049542;28;20225;-64
2024/01/31 01:04:01;;;;;;;21.77;17.07;;;;;;;6.44;100.00;101767.44;5020935;28;20199;-65
2024/01/31 01:06:27;;;;;;;27.17;17.70;;;;;;;6.46;100.00;101769.13;5031476;28;20192;-65
2024/01/31 01:08:52;;;;;;;21.57;18.87;;;;;;;6.49;100.00;101780.16;5029380;28;20714;-64
2024/01/31 01:11:18;;;;;;;21.00;16.10;;;;;;;6.53;100.00;101781.84;5041535;28;20594;-65
2024/01/31 01:13:44;;;;;;;19.37;16.43;;;;;;;6.55;100.00;101770.72;5042756;28;20272;-64
2024/01/31 01:16:09;;;;;;;24.30;16.07;;;;;;;6.45;100.00;101776.81;5030218;28;20686;-64
2024/01/31 01:18:35;;;;;;;19.77;16.57;;;;;;;6.60;100.00;101794.53;5029826;28;20185;-64
2024/01/31 01:21:00;;;;;;;24.90;16.60;;;;;;;6.72;100.00;101785.91;5055796;28;20225;-65
2024/01/31 01:23:25;;;;;;;23.43;17.27;;;;;;;6.81;100.00;101781.53;5038266;28;20559;-64
2024/01/31 01:25:50;;;;;;;17.80;15.87;;;;;;;6.87;100.00;101778.88;5031762;28;20197;-64
2024/01/31 01:28:16;;;;;;;19.93;16.43;;;;;;;6.85;100.00;101767.84;5029019;28;20615;-65
2024/01/31 01:30:41;;;;;;;19.70;16.20;;;;;;;6.75;100.00;101770.50;5028362;28;20375;-65
2024/01/31 01:33:06;;;;;;;18.47;14.47;;;;;;;6.61;100.00;101775.78;5040085;28;20268;-64
2024/01/31 01:35:32;;;;;;;24.07;15.17;;;;;;;6.71;100.00;101775.66;5029837;28;20263;-65
2024/01/31 01:37:57;;;;;;;18.17;14.77;;;;;;;6.83;100.00;101775.53;5030901;28;20240;-67
2024/01/31 01:40:22;;;;;;;17.77;15.27;;;;;;;6.69;100.00;101777.41;5026470;28;20225;-65
2024/01/31 01:42:47;;;;;;;21.23;15.73;;;;;;;6.54;100.00;101784.38;5056954;28;20182;-66
2024/01/31 01:45:13;;;;;;;20.60;15.77;;;;;;;6.46;100.00;101778.50;5031229;28;20213;-65
2024/01/31 01:47:42;;;;;;;17.60;15.10;;;;;;;6.46;100.00;101781.03;5031107;28;20226;-66
2024/01/31 01:50:09;;;;;;;18.90;15.20;;;;;;;6.56;100.00;101790.34;5021714;28;20194;-65
2024/01/31 01:52:34;;;;;;;20.53;15.03;;;;;;;6.66;100.00;101785.09;5044388;28;20190;-65
2024/01/31 01:55:03;;;;;;;16.97;13.90;;;;;;;6.60;100.00;101789.44;5029579;28;20536;-65
2024/01/31 01:57:31;;;;;;;16.10;13.47;;;;;;;6.71;100.00;101789.31;5030859;28;20492;-65
2024/01/31 01:59:57;;;;;;;15.63;11.57;;;;;;;6.57;100.00;101784.34;5030932;28;20634;-64
2024/01/31 02:02:22;;;;;;;12.33;11.03;;;;;;;6.70;100.00;101782.50;5036417;28;20711;-65
2024/01/31 02:04:48;;;;;;;13.63;9.33;;;;;;;6.79;100.00;101789.22;5034517;28;20170;-65
2024/01/31 02:07:14;;;;;;;11.13;9.87;;;;;;;6.85;100.00;101786.59;5033051;28;20170;-65
2024/01/31 02:09:39;;;;;;;11.37;9.27;;;;;;;6.77;100.00;101783.25;5026922;28;20261;-64
2024/01/31 02:12:05;;;;;;;12.93;10.33;;;;;;;6.80;100.00;101788.34;5036515;28;20228;-65
2024/01/31 02:14:30;;;;;;;12.37;9.27;;;;;;;6.81;100.00;101781.53;5034529;28;20185;-65
2024/01/31 02:16:57;;;;;;;11.40;9.13;;;;;;;6.84;100.00;101777.22;5032732;28;20205;-64
2024/01/31 02:19:22;;;;;;;12.03;8.90;;;;;;;6.95;100.00;101775.38;5034625;28;20240;-65
2024/01/31 02:21:49;;;;;;;10.50;8.20;;;;;;;6.86;100.00;101770.38;5056491;28;20226;-65
2024/01/31 02:24:15;;;;;;;14.57;9.07;;;;;;;6.92;100.00;101784.78;5035897;28;20190;-64
2024/01/31 02:26:40;;;;;;;10.07;9.03;;;;;;;6.71;100.00;101785.88;5032858;28;20687;-65
2024/01/31 02:29:05;;;;;;;12.70;9.03;;;;;;;6.80;100.00;101788.34;5065986;28;20193;-64
2024/01/31 02:31:31;;;;;;;13.17;7.70;;;;;;;6.71;100.00;101784.19;5047287;28;20381;-64
2024/01/31 02:33:56;;;;;;;8.80;7.07;;;;;;;6.88;100.00;101786.53;5037094;28;20259;-64
2024/01/31 02:36:21;;;;;;;10.97;7.60;;;;;;;6.89;100.00;101798.47;5032214;28;20178;-66
2024/01/31 02:38:46;;;;;;;9.20;7.03;;;;;;;6.97;100.00;101790.72;5066060;28;20232;-64
2024/01/31 02:41:12;;;;;;;8.50;6.27;;;;;;;7.03;100.00;101779.53;5042165;28;20701;-65
2024/01/31 02:43:37;;;;;;;8.83;6.40;;;;;;;7.08;100.00;101786.31;5039208;28;20182;-65
2024/01/31 02:46:02;;;;;;;9.00;5.73;;;;;;;6.93;100.00;101783.94;5033657;28;20261;-65
2024/01/31 02:48:27;;;;;;;5.63;4.63;;;;;;;6.97;100.00;101784.75;5032430;28;20185;-65
2024/01/31 02:50:53;;;;;;;6.03;5.40;;;;;;;6.92;100.00;101777.97;5061368;28;20308;-65
2024/01/31 02:53:18;;;;;;;7.30;4.73;;;;;;;6.89;100.00;101772.88;5032469;28;20300;-65
2024/01/31 02:55:43;;;;;;;5.63;4.77;;;;;;;6.85;100.00;101778.91;5020570;28;20182;-64
2024/01/31 02:58:09;;;;;;;7.27;4.90;;;;;;;6.90;100.00;101779.69;5060485;28;20607;-65
2024/01/31 03:00:34;;;;;;;9.20;5.27;;;;;;;6.92;100.00;101772.00;5023494;28;20228;-64
2024/01/31 03:02:59;;;;;;;6.90;4.40;;;;;;;6.98;100.00;101773.66;5056065;28;20170;-64
2024/01/31 03:05:24;;;;;;;8.00;4.93;;;;;;;6.61;100.00;101764.69;5033493;28;20570;-64
2024/01/31 03:07:50;;;;;;;7.17;5.53;;;;;;;6.45;100.00;101777.66;5027261;28;20210;-64
2024/01/31 03:10:15;;;;;;;8.53;5.90;;;;;;;6.60;100.00;101779.19;5018148;28;20603;-64
2024/01/31 03:12:40;;;;;;;6.53;4.73;;;;;;;6.73;100.00;101786.72;5033005;28;20202;-64
2024/01/31 03:15:06;;;;;;;7.53;4.87;;;;;;;6.74;100.00;101791.81;5030994;28;20276;-64
2024/01/31 03:17:35;;;;;;;5.93;4.40;;;;;;;6.55;100.00;101793.75;5033269;28;20629;-65
2024/01/31 03:20:05;;;;;;;7.70;4.97;;;;;;;6.71;100.00;101794.44;5022122;28;20190;-65
2024/01/31 03:22:31;;;;;;;6.73;5.27;;;;;;;6.77;100.00;101793.50;5020427;28;20218;-64
2024/01/31 03:24:56;;;;;;;7.20;5.00;;;;;;;6.72;100.00;101796.13;5031751;28;20244;-64
2024/01/31 03:27:21;;;;;;;6.63;4.77;;;;;;;6.61;100.00;101805.59;5033042;28;20186;-64
2024/01/31 03:29:47;;;;;;;10.03;5.60;;;;;;;6.55;100.00;101801.41;5031718;28;20604;-64
2024/01/31 03:32:12;;;;;;;6.03;5.23;;;;;;;6.58;100.00;101798.81;5039369;28;20231;-64
2024/01/31 03:34:37;;;;;;;5.80;5.03;;;;;;;6.57;100.00;101812.47;5064935;28;20552;-65
2024/01/31 03:37:05;;;;;;;5.80;4.37;;;;;;;6.66;100.00;101813.22;5019460;28;20178;-65
2024/01/31 03:39:30;;;;;;;7.10;5.03;;;;;;;6.67;100.00;101813.22;5064886;28;20205;-65
2024/01/31 03:41:56;;;;;;;5.33;4.83;;;;;;;6.70;100.00;101815.75;5050524;28;20681;-65
2024/01/31 03:44:21;;;;;;;6.27;4.50;;;;;;;6.74;100.00;101812.28;5063953;28;20189;-65
2024/01/31 03:46:46;;;;;;;6.30;4.30;;;;;;;6.74;100.00;101819.13;5032525;28;20735;-65
2024/01/31 03:49:12;;;;;;;7.00;4.33;;;;;;;6.75;100.00;101808.88;5038758;28;20208;-65
2024/01/31 03:51:37;;;;;;;6.97;4.70;;;;;;;6.67;100.00;101812.38;5036882;28;20691;-65
2024/01/31 03:54:03;;;;;;;7.00;4.73;;;;;;;6.68;100.00;101824.31;5034950;28;20178;-65
2024/01/31 03:56:28;;;;;;;8.80;4.50;;;;;;;6.72;100.00;101814.03;5032473;28;20231;-65
2024/01/31 03:58:54;;;;;;;7.30;5.13;;;;;;;6.67;100.00;101809.81;5032330;28;20174;-65
2024/01/31 04:01:19;;;;;;;6.47;4.40;;;;;;;6.63;100.00;101820.06;5042259;28;20680;-64
2024/01/31 04:03:45;;;;;;;7.33;4.90;;;;;;;6.61;100.00;101814.13;5029972;28;20190;-65
2024/01/31 04:06:11;;;;;;;7.30;5.00;;;;;;;6.62;100.00;101822.66;5030849;28;20536;-64
2024/01/31 04:08:36;;;;;;;4.80;4.00;;;;;;;6.59;100.00;101820.13;5030560;28;20242;-65
2024/01/31 04:11:02;;;;;;;6.67;5.13;;;;;;;6.59;100.00;101817.56;5038166;28;20244;-65
2024/01/31 04:13:28;;;;;;;5.30;4.63;;;;;;;6.44;100.00;101821.97;5047546;28;20205;-66
2024/01/31 04:15:53;;;;;;;5.13;4.33;;;;;;;6.43;100.00;101819.44;5030971;28;20633;-65
2024/01/31 04:18:19;;;;;;;4.97;3.97;;;;;;;6.33;100.00;101821.22;5025594;28;20179;-64
2024/01/31 04:20:45;;;;;;;4.40;3.90;;;;;;;6.24;100.00;101818.75;5022589;28;20242;-65
2024/01/31 04:23:11;;;;;;;4.50;4.00;;;;;;;6.25;100.00;101828.97;5052110;28;20248;-65
2024/01/31 04:25:36;;;;;;;5.47;3.20;;;;;;;6.13;100.00;101829.91;5032085;28;20641;-64
2024/01/31 04:28:01;;;;;;;4.87;3.50;;;;;;;6.10;100.00;101839.31;5030742;28;20342;-65
2024/01/31 04:30:27;;;;;;;4.37;3.73;;;;;;;6.00;100.00;101835.13;5007396;28;20716;-64
2024/01/31 04:32:52;;;;;;;5.47;4.00;;;;;;;6.02;100.00;101841.09;5039902;28;20661;-66
2024/01/31 04:35:17;;;;;;;4.57;3.80;;;;;;;6.00;100.00;101827.47;5016458;28;20179;-66
2024/01/31 04:37:43;;;;;;;4.50;4.00;;;;;;;5.95;100.00;101836.00;5022076;28;20656;-65
2024/01/31 04:40:09;;;;;;;5.47;3.57;;;;;;;5.93;100.00;101832.59;5021690;28;20276;-65
2024/01/31 04:42:35;;;;;;;6.00;3.23;;;;;;;5.94;100.00;101838.53;5061240;28;20243;-65
2024/01/31 04:45:00;;;;;;;5.03;3.10;;;;;;;5.96;100.00;101841.94;5030045;28;20189;-64
2024/01/31 04:47:26;;;;;;;6.23;3.57;;;;;;;5.89;100.00;101843.69;5031526;28;20230;-66
2024/01/31 04:49:58;;;;;;;4.40;2.97;;;;;;;5.86;100.00;101842.88;5034219;28;20194;-65
2024/01/31 04:52:24;;;;;;;6.40;2.80;;;;;;;5.90;100.00;101847.09;5040487;28;20316;-65
2024/01/31 04:54:53;;;;;;;6.53;2.53;;;;;;;5.85;100.00;101836.06;5031484;28;20654;-65
2024/01/31 04:57:19;;;;;;;4.07;2.83;;;;;;;5.82;100.00;101827.56;5031401;28;20243;-65
2024/01/31 04:59:44;;;;;;;3.73;2.60;;;;;;;5.85;100.00;101830.97;5031536;28;20613;-65
2024/01/31 05:02:10;;;;;;;4.20;2.80;;;;;;;5.74;100.00;101820.81;5052654;28;20227;-65
2024/01/31 05:04:36;;;;;;;2.90;2.57;;;;;;;5.63;100.00;101819.19;5030123;28;20227;-65
2024/01/31 05:07:01;;;;;;;3.47;2.30;;;;;;;5.42;100.00;101822.72;5031408;28;20261;-64
2024/01/31 05:09:26;;;;;;;3.30;2.57;;;;;;;5.27;100.00;101830.44;5031604;28;20283;-66
2024/01/31 05:11:51;;;;;;;3.40;2.60;;;;;;;5.10;100.00;101831.34;5049564;28;20261;-65
2024/01/31 05:14:17;;;;;;;4.97;3.03;;;;;;;4.81;100.00;101834.00;5034164;28;20193;-65
2024/01/31 05:16:42;;;;;;;4.13;2.60;;;;;;;4.68;100.00;101828.09;5031224;28;20193;-65
2024/01/31 05:19:14;;;;;;;3.50;2.50;;;;;;;4.59;100.00;101831.50;5031349;28;20185;-66
2024/01/31 05:21:49;;;;;;;4.60;2.50;;;;;;;4.45;100.00;101831.53;5046062;28;20246;-65
2024/01/31 05:24:15;;;;;;;5.73;2.60;;;;;;;4.45;100.00;101833.22;5031643;28;20182;-65
2024/01/31 05:26:42;;;;;;;4.03;2.80;;;;;;;4.36;100.00;101844.25;5031299;28;20200;-65
2024/01/31 05:29:07;;;;;;;5.47;3.00;;;;;;;4.31;100.00;101833.22;5030932;28;20281;-66
2024/01/31 05:31:33;;;;;;;4.57;2.57;;;;;;;4.26;100.00;101842.59;5049273;28;20319;-66
2024/01/31 05:33:58;;;;;;;3.53;2.77;;;;;;;4.21;100.00;101847.66;5035318;28;20209;-65
2024/01/31 05:36:23;;;;;;;3.23;2.87;;;;;;;4.17;100.00;101841.72;5029664;28;20217;-66
2024/01/31 05:38:49;;;;;;;3.13;2.47;;;;;;;4.08;100.00;101844.28;5034013;28;20223;-65
2024/01/31 05:41:15;;;;;;;6.13;2.87;;;;;;;3.92;100.00;101843.41;5044194;28;20224;-65
2024/01/31 05:43:40;;;;;;;4.27;2.60;;;;;;;3.75;100.00;101840.00;5046868;28;20190;-64
2024/01/31 05:46:05;;;;;;;6.50;2.67;;;;;;;3.68;100.00;101837.44;5034754;28;20700;-65
2024/01/31 05:48:31;;;;;;;4.60;2.77;;;;;;;3.55;100.00;101835.72;5034497;28;20513;-65
2024/01/31 05:50:56;;;;;;;3.27;2.97;;;;;;;3.59;100.00;101836.56;5044684;28;20244;-66
2024/01/31 05:53:21;;;;;;;5.87;2.90;;;;;;;3.64;100.00;101833.16;5042218;28;20638;-65
2024/01/31 05:55:47;;;;;;;4.27;2.67;;;;;;;3.62;100.00;101837.44;5034638;28;20553;-66
2024/01/31 05:58:12;;;;;;;7.50;3.30;;;;;;;3.70;100.00;101837.44;5034699;28;20194;-65
2024/01/31 06:00:37;;;;;;;5.00;2.93;;;;;;;3.77;100.00;101831.53;5034082;28;20224;-66
2024/01/31 06:03:03;;;;;;;4.73;3.80;;;;;;;3.87;100.00;101834.94;5056727;28;20201;-66
2024/01/31 06:05:28;;;;;;;4.93;2.83;;;;;;;3.91;100.00;101817.94;5034415;28;20294;-66
2024/01/31 06:07:53;;;;;;;6.20;3.27;;;;;;;3.80;100.00;101808.59;5034290;28;20189;-66
2024/01/31 06:10:20;;;;;;;4.70;3.20;;;;;;;3.63;100.00;101811.09;5060604;28;20209;-65
2024/01/31 06:12:45;;;;;;;3.90;3.03;;;;;;;3.61;100.00;101805.19;5060713;28;20204;-65
2024/01/31 06:15:11;;;;;;;5.03;3.53;;;;;;;3.49;100.00;101805.16;5034199;28;20204;-65
2024/01/31 06:17:38;;;;;;;5.90;3.50;;;;;;;3.43;100.00;101803.44;5032221;28;20264;-66
2024/01/31 06:20:04;;;;;;;4.93;3.63;;;;;;;3.30;100.00;101811.88;5026147;28;20190;-67
2024/01/31 06:22:30;;;;;;;4.20;2.97;;;;;;;3.23;100.00;101816.09;5064658;28;20214;-66
2024/01/31 06:24:55;;;;;;;3.87;3.47;;;;;;;3.17;100.00;101827.09;5049418;28;20213;-67
2024/01/31 06:27:20;;;;;;;6.77;3.30;;;;;;;3.20;100.00;101831.34;5048055;28;20170;-65
2024/01/31 06:29:46;;;;;;;4.53;3.43;;;;;;;3.19;100.00;101833.03;5065900;28;20288;-65
2024/01/31 06:32:11;;;;;;;4.73;2.73;;;;;;;3.19;100.00;101839.84;5055581;28;20290;-65
2024/01/31 06:34:36;;;;;;;8.63;3.20;;;;;;;3.22;100.00;101842.38;5034170;28;20635;-65
2024/01/31 06:37:01;;;;;;;3.17;2.87;;;;;;;3.23;100.00;101849.16;5033647;28;20953;-65
2024/01/31 06:39:27;;;;;;;4.60;2.90;;;;;;;3.23;100.00;101855.09;5065889;28;20248;-65
2024/01/31 06:41:52;;;;;;;6.23;4.30;;;;;;;3.25;100.00;101856.78;5052473;28;20217;-65
2024/01/31 06:44:17;;;;;;;4.07;3.07;;;;;;;3.27;100.00;101857.66;5036577;28;20190;-65
2024/01/31 06:46:47;;;;;;;5.93;3.40;;;;;;;3.26;100.00;101853.41;5033390;28;20221;-67
2024/01/31 06:49:13;;;;;;;5.43;3.50;;;;;;;3.22;100.00;101867.81;5038700;28;20201;-65
2024/01/31 06:51:38;;;;;;;5.47;3.67;;;;;;;3.27;100.00;101868.66;5057925;28;20651;-65
2024/01/31 06:54:03;;;;;;;5.30;3.37;;;;;;;3.34;100.00;101872.09;5036949;28;20174;-66
2024/01/31 06:56:28;;;;;;;6.87;4.27;;;;;;;3.47;100.00;101873.00;5032055;28;20587;-64
2024/01/31 06:58:56;;;;;;;4.40;3.40;;;;;;;3.56;100.00;101865.41;5033517;28;20240;-65
2024/01/31 07:01:22;;;;;;;6.80;4.20;;;;;;;3.64;100.00;101873.06;5044501;28;20252;-66
2024/01/31 07:03:47;;;;;;;7.03;4.17;;;;;;;3.81;100.00;101870.56;5031084;28;20220;-65
2024/01/31 07:06:13;;;;;;;4.67;3.53;;;;;;;3.80;100.00;101864.59;5033645;28;20209;-65
2024/01/31 07:08:39;;;;;;;5.77;4.13;;;;;;;3.83;100.00;101871.38;5032063;28;20245;-66
2024/01/31 07:11:08;;;;;;;5.97;3.57;;;;;;;3.79;100.00;101872.25;5033295;28;20242;-66
2024/01/31 07:13:38;;;;;;;6.70;3.97;;;;;;;3.74;100.00;101867.13;5047273;28;20182;-65
2024/01/31 07:16:09;;;;;;;5.73;4.43;;;;;;;3.83;100.00;101873.94;5052973;28;20174;-65
2024/01/31 07:18:35;;;;;;;5.97;3.50;;;;;;;3.98;100.00;101880.75;5065099;28;20242;-64
2024/01/31 07:21:00;;;;;;;7.07;3.90;;;;;;;4.21;100.00;101880.78;5032805;28;20682;-65
2024/01/31 07:23:26;;;;;;;6.50;4.47;;;;;;;4.29;100.00;101879.09;5048958;28;20559;-65
2024/01/31 07:25:51;;;;;;;6.70;4.50;;;;;;;4.34;100.00;101882.50;5030737;28;20186;-65
2024/01/31 07:28:16;;;;;;;7.33;4.13;;;;;;;4.42;100.00;101887.59;5020914;28;20534;-65
2024/01/31 07:30:41;;;;;;;7.50;4.57;;;;;;;4.48;100.00;101895.22;5033367;28;20306;-65
2024/01/31 07:33:07;;;;;;;7.10;4.03;;;;;;;4.63;100.00;101893.53;5042538;28;20193;-65
2024/01/31 07:35:32;;;;;;;5.53;4.43;;;;;;;4.83;100.00;101886.69;5031635;28;20208;-64
2024/01/31 07:37:57;;;;;;;4.43;3.80;;;;;;;4.64;100.00;101890.97;5029703;28;20231;-66
2024/01/31 07:40:23;;;;;;;6.00;3.70;;;;;;;4.63;100.00;101890.97;5050385;28;20643;-66
2024/01/31 07:42:48;;;;;;;5.07;3.63;;;;;;;4.77;100.00;101886.69;5058580;28;20185;-66
2024/01/31 07:45:13;;;;;;;4.33;3.43;;;;;;;4.97;100.00;101890.91;5032841;28;20186;-65
2024/01/31 07:47:39;;;;;;;7.00;3.87;;;;;;;5.08;100.00;101894.28;5032745;28;20222;-65
2024/01/31 07:50:07;;;;;;;5.77;3.90;;;;;;;5.29;100.00;101882.31;5026951;28;20213;-66
2024/01/31 07:52:32;;;;;;;8.17;4.27;;;;;;;5.53;100.00;101886.44;5062285;28;20217;-65
2024/01/31 07:54:58;;;;;;;5.17;3.43;;;;;;;5.64;100.00;101883.84;5032502;28;20193;-66
2024/01/31 07:57:24;;;;;;;6.83;3.37;;;;;;;5.76;100.00;101885.50;5064211;28;20189;-65
2024/01/31 07:59:49;;;;;;;5.33;3.50;;;;;;;5.79;100.00;101883.78;5031070;28;20525;-65
2024/01/31 08:02:15;;;;;;;11.57;4.23;;;;;;;5.86;100.00;101878.63;5038115;28;20311;-66
2024/01/31 08:04:40;;;;;;;4.93;3.90;;;;;;;6.03;100.00;101878.53;5032813;28;20272;-65
2024/01/31 08:07:05;;;;;;;10.50;4.37;;;;;;;6.13;100.00;101878.47;5064087;28;20262;-66
2024/01/31 08:09:31;;;;;;;4.27;3.73;;;;;;;6.19;100.00;101880.13;5032277;28;20248;-65
2024/01/31 08:11:56;;;;;;;5.67;4.00;;;;;;;5.89;100.00;101879.47;5055668;28;20633;-65
2024/01/31 08:14:21;;;;;;;6.20;4.13;;;;;;;5.85;100.00;101872.66;5032850;28;20574;-66
2024/01/31 08:16:49;;;;;;;4.70;3.37;;;;;;;5.99;100.00;101875.13;5028596;28;20247;-65
2024/01/31 08:19:15;;;;;;;5.00;3.77;;;;;;;5.92;100.00;101874.31;5021836;28;20186;-65
2024/01/31 08:21:40;;;;;;;5.37;3.40;;;;;;;5.98;100.00;101865.78;5047574;28;21019;-68
2024/01/31 08:24:06;;;;;;;6.00;3.40;;;;;;;5.88;100.00;101864.97;5037198;28;20197;-68
2024/01/31 08:26:31;;;;;;;6.00;3.17;;;;;;;6.03;100.00;101864.06;5032110;28;20288;-68
2024/01/31 08:28:56;;;;;;;7.07;3.97;;;;;;;6.30;100.00;101865.56;5031935;28;20257;-66
2024/01/31 08:31:22;;;;;;;5.23;3.93;;;;;;;6.43;100.00;101866.28;5003603;28;20589;-67
2024/01/31 08:33:47;;;;;;;4.73;4.00;;;;;;;6.71;100.00;101868.59;5029359;28;20178;-67
2024/01/31 08:36:12;;;;;;;7.13;4.03;;;;;;;6.93;100.00;101874.34;5031872;28;20188;-65
2024/01/31 08:38:40;;;;;;;4.37;3.97;;;;;;;7.19;100.00;101864.66;5031115;28;20186;-64
2024/01/31 08:41:05;;;;;;;6.43;3.60;;;;;;;7.28;100.00;101867.09;5031816;28;20231;-66
2024/01/31 08:43:30;;;;;;;4.40;3.37;;;;;;;7.42;100.00;101872.06;5046317;28;20534;-67
2024/01/31 08:45:56;;;;;;;6.97;3.77;;;;;;;7.34;100.00;101874.69;5031180;28;20257;-65
2024/01/31 08:48:21;;;;;;;6.57;3.87;;;;;;;7.36;100.00;101872.13;5030280;28;20189;-64
2024/01/31 08:50:47;;;;;;;6.03;4.27;;;;;;;7.21;100.00;101871.44;5034486;28;20220;-64
2024/01/31 08:53:14;;;;;;;4.93;3.53;;;;;;;7.35;100.00;101871.28;5039468;28;20238;-65
2024/01/31 08:55:39;;;;;;;4.63;3.40;;;;;;;7.67;100.00;101859.75;5031432;28;20214;-64
2024/01/31 08:58:04;;;;;;;4.13;3.30;;;;;;;8.14;100.00;101862.47;5029914;28;20609;-64
2024/01/31 09:00:30;;;;;;;6.87;3.60;;;;;;;8.67;100.00;101867.59;5026970;28;20238;-64
2024/01/31 09:02:56;;;;;;;4.17;3.77;;;;;;;8.74;100.00;101857.22;5054577;28;20182;-63
2024/01/31 09:05:22;;;;;;;4.10;3.10;;;;;;;9.12;100.00;101855.63;5030275;28;20556;-64
2024/01/31 09:07:47;;;;;;;4.10;3.03;;;;;;;9.15;100.00;101858.13;5029861;28;20178;-65
2024/01/31 09:10:12;;;;;;;3.27;2.70;;;;;;;9.26;100.00;101860.47;5022185;28;20217;-66
2024/01/31 09:12:38;;;;;;;3.27;2.77;;;;;;;9.17;100.00;101854.66;5058970;28;20182;-67
2024/01/31 09:15:03;;;;;;;2.87;2.63;;;;;;;9.38;100.00;101862.78;5031295;28;20182;-67
2024/01/31 09:17:29;;;;;;;5.10;2.33;;;;;;;9.29;100.00;101866.41;5031109;28;20189;-67
2024/01/31 09:19:54;;;;;;;3.27;2.97;;;;;;;9.26;100.00;101868.19;5063258;28;20174;-67
2024/01/31 09:22:19;;;;;;;4.13;3.00;;;;;;;9.28;100.00;101877.53;5036752;28;20224;-67
2024/01/31 09:24:44;;;;;;;5.83;2.70;;;;;;;9.52;100.00;101860.75;5031219;28;20186;-67
2024/01/31 09:27:10;;;;;;;3.17;2.87;;;;;;;10.00;100.00;101853.69;5029956;28;20546;-64
2024/01/31 09:29:35;;;;;;;2.93;2.63;;;;;;;10.69;100.00;101853.66;5031108;28;20197;-64
2024/01/31 09:32:02;;;;;;;3.00;2.30;;;;;;;12.15;99.46;101851.97;5051748;28;20670;-65
2024/01/31 09:34:28;;;;;;;2.97;2.40;;;;;;;13.54;92.11;101850.47;5029890;28;20190;-65
2024/01/31 09:36:53;;;;;;;3.90;2.70;;;;;;;15.03;75.36;101841.66;5029413;28;20204;-66
2024/01/31 09:39:18;;;;;;;2.50;2.13;;;;;;;14.66;73.33;101845.88;5029634;28;20636;-67
2024/01/31 09:41:44;;;;;;;2.83;2.20;;;;;;;14.09;80.74;101835.34;5036220;28;20589;-67
2024/01/31 09:44:09;;;;;;;3.03;2.13;;;;;;;14.39;78.24;101830.63;5032338;28;20194;-65
2024/01/31 09:46:36;;;;;;;3.67;2.13;;;;;;;16.04;63.11;101837.78;5029165;28;20218;-65
2024/01/31 09:49:01;;;;;;;2.27;1.80;;;;;;;17.86;54.59;101840.25;5035568;28;20186;-66
2024/01/31 09:51:27;;;;;;;1.93;1.80;;;;;;;17.43;52.47;101845.28;5035116;28;20228;-65
2024/01/31 09:54:00;;;;;;;2.17;1.70;;;;;;;19.39;47.34;101838.00;5029393;28;20194;-66
2024/01/31 09:56:31;;;;;;;1.77;1.67;;;;;;;20.93;42.48;101850.38;5017428;28;20183;-65
2024/01/31 09:58:57;;;;;;;1.70;1.60;;;;;;;21.19;39.53;101850.28;5030906;28;20220;-66
2024/01/31 10:01:24;;;;;;;6.77;1.70;;;;;;;21.09;39.48;101849.28;5041253;28;20406;-67
2024/01/31 10:03:49;;;;;;;2.10;1.90;;;;;;;21.00;41.51;101853.41;5034675;28;20541;-65
2024/01/31 10:06:15;;;;;;;2.92;2.38;;;;;;;22.58;38.74;101857.50;5029283;28;20228;-64
2024/01/31 10:08:40;;;;;;;4.28;2.40;;;;;;;20.96;40.00;101859.78;5029549;28;20281;-63
2024/01/31 10:11:06;;;;;;;3.33;2.58;;;;;;;21.76;39.10;101864.50;5037000;28;20625;-63
2024/01/31 10:13:31;;;;;;;2.17;1.98;;;;;;;20.60;38.69;101862.25;5045315;28;20178;-63
2024/01/31 10:15:57;;;;;;;2.17;1.67;;;;;;;19.32;40.56;101862.81;5030158;28;20182;-65
2024/01/31 10:18:27;;;;;;;3.60;1.60;;;;;;;16.92;42.91;101874.03;5029252;28;20213;-65
2024/01/31 10:20:52;;;;;;;2.53;1.40;;;;;;;15.00;47.20;101876.31;5020575;28;20300;-64
2024/01/31 10:23:19;;;;;;;2.07;1.50;;;;;;;12.99;53.05;101871.44;5057177;28;20633;-64
2024/01/31 10:25:44;;;;;;;3.17;1.70;;;;;;;12.72;58.08;101874.09;5039993;28;20186;-66
2024/01/31 10:28:10;;;;;;;3.67;1.53;;;;;;;13.39;60.71;101871.72;5034382;28;20320;-66
2024/01/31 10:30:47;;;;;;;1.97;1.43;;;;;;;13.55;58.90;101866.81;5032938;28;20252;-65
2024/01/31 10:33:14;;;;;;;1.93;1.13;;;;;;;12.85;56.60;101863.31;5047842;28;20652;-63
2024/01/31 10:35:41;;;;;;;2.00;1.20;;;;;;;12.40;61.18;101854.56;5026229;28;20179;-64
2024/01/31 10:38:07;;;;;;;2.33;1.30;;;;;;;11.67;70.09;101862.06;5027512;28;20217;-63
2024/01/31 10:40:34;;;;;;;2.27;1.20;;;;;;;10.77;77.65;101862.03;5020707;28;20675;-63
2024/01/31 10:43:01;;;;;;;2.57;0.97;;;;;;;10.35;82.27;101867.41;5043770;28;20273;-64
2024/01/31 10:45:29;;;;;;;2.03;1.20;;;;;;;9.94;87.11;101862.38;5033216;28;20208;-64
2024/01/31 10:47:54;;;;;;;1.07;1.00;;;;;;;9.64;87.90;101851.94;5033632;28;20208;-63
2024/01/31 10:50:20;;;;;;;3.63;1.50;;;;;;;9.61;92.26;101858.88;5028546;28;20213;-64
2024/01/31 10:52:46;;;;;;;1.63;1.10;;;;;;;9.82;90.91;101854.97;5058424;28;20209;-63
2024/01/31 10:55:13;;;;;;;1.30;1.20;;;;;;;10.01;87.98;101852.81;5033589;28;20240;-64
2024/01/31 10:57:40;;;;;;;1.27;1.10;;;;;;;9.73;90.07;101843.16;5065403;28;20280;-65
2024/01/31 11:00:09;;;;;;;2.17;0.93;;;;;;;9.49;93.04;101853.13;5019619;28;20193;-64
2024/01/31 11:02:35;;;;;;;1.53;1.10;;;;;;;9.50;94.77;101851.38;5030541;28;20205;-65
2024/01/31 11:05:01;;;;;;;1.53;1.03;;;;;;;9.36;95.93;101852.56;5033450;28;20271;-64
2024/01/31 11:07:26;;;;;;;2.07;1.67;;;;;;;9.27;98.84;101859.59;5033463;28;20282;-65
2024/01/31 11:09:53;;;;;;;2.90;1.30;;;;;;;9.08;95.44;101856.56;5033500;28;20289;-62
2024/01/31 11:12:18;;;;;;;2.97;1.60;;;;;;;9.05;97.95;101844.63;5054737;28;20317;-64
2024/01/31 11:14:46;;;;;;;1.90;1.23;;;;;;;9.01;96.54;101856.66;5033086;28;20202;-65